Yemassee, South Carolina
Current Conditions -  °F | °C
As of 5:32 PM on Sunday 23 Nov 2014 (Local Time) from KNBC Reporting Station
Thunderstorm Thunderstorm  
Wind Chill: 67°   Ceiling: 400
Heat Index: 67°   Visibility: 3mi
Dew Point: 66°   Wind: 3mph
Humidity: 97%   Direction: 140°SE
Pressure: 29.83"   Gusts: NA
Location:  32.69°N, 80.85°W
Report Text: KNBC 232232Z AUTO 14003KT 3SM -TSRA BR OVC004 19/19 A2983 RMK AO2 RAB18 TSB19 OCNL LTGICCCCG TS OVHD MOV NE P0010 T01940189 $
Loading
Personal Weather Stations






























Interactive Weather Map New forecast layout! Learn more

10-Day Weather Forecast

Advertisements
Track Severe Weather on mobile